Nikolaevskoe, Russia
Current Conditions -  °F | °C
As of 3:30 PM on Friday 31 Oct 2014 (Local Time) from ULOO Reporting Station
Broken Clouds Broken Clouds  
Wind Chill: 38°   Ceiling: 1600
Heat Index: 43°   Visibility: 4mi
Dew Point: 37°   Wind: 9mph
Humidity: 81%   Direction: 310°NW
Pressure: 30.15"   Gusts: NA
Location:  58.57°N, 29.8°E
Report Text: ULOO 311230Z 31004MPS 6000 BKN016 06/03 Q1021 19190060 NOSIGRMK QFE762
Loading
Personal Weather Stations






























Interactive Weather Map
Tropical Storm Tracking
New forecast layout! Learn more

10-Day Weather Forecast

Advertisements
Track Severe Weather on mobile